Isle of Rum, United Kingdom
Current Conditions -  °F | °C
As of 3:50 PM on Friday 31 Oct 2014 (Local Time) from EGPU Reporting Station
Moderate Rain Moderate Rain  
Wind Chill: 55°   Ceiling: 1800
Heat Index: 55°   Visibility: 4mi
Dew Point: 54°   Wind: 14mph
Humidity: 94%   Direction: 190°S
Pressure: 29.56"   Gusts: NA
Location:  57.01°N, 6.28°W
Report Text: EGPU 311550Z AUTO 19012KT 6000 RA FEW003/// BKN018/// 13/12 Q1001
Loading
Personal Weather Stations






























Interactive Weather Map New forecast layout! Learn more

10-Day Weather Forecast

Advertisements
Track Severe Weather on mobile